ADDS METAR Data INFO
IDs: Format: Raw Decoded Include TAF

Data at: 2111 UTC 22 Oct 2017

KMBO 222055Z AUTO 00000KT 10SM -RA SCT002 SCT011 SCT018 18/16 A3000 RMK AO2
KMBO 222035Z AUTO 25005KT 10SM SCT014 19/16 A3003 RMK AO2
KMBO 222015Z AUTO 25007KT 10SM BKN011 OVC018 19/17 A3002 RMK AO2
KMBO 221955Z AUTO 21003KT 10SM BKN013 18/17 A3001 RMK AO2 LTG DSNT S
KMBO 221935Z AUTO 25003KT 10SM SCT010 BKN016 BKN085 18/17 A3002 RMK AO2
KMBO 221915Z AUTO 30003KT 10SM SCT012 SCT065 SCT085 18/16 A3003 RMK AO2
KMBO 221855Z AUTO 00000KT 10SM SCT065 SCT085 18/17 A3003 RMK AO2
KMBO 221835Z AUTO 32004KT 10SM SCT050 18/17 A3004 RMK AO2
KMBO 221815Z AUTO 35003KT 10SM BKN008 SCT014 BKN050 17/17 A3004 RMK AO2
KMBO 221755Z AUTO 00000KT 7SM DZ BKN008 OVC039 17/17 A3006 RMK AO2
KMBO 221735Z AUTO 30004KT 10SM -RA BKN006 BKN012 OVC039 17/17 A3006 RMK AO2
KMBO 221715Z AUTO 30006KT 7SM RA BKN006 BKN014 OVC038 17/17 A3006 RMK AO2
KMBO 221655Z AUTO 31005KT 5SM RA OVC008 17/16 A3006 RMK AO2 LTG DSNT SE
KMBO 221635Z AUTO 31004KT 5SM RA OVC008 17/16 A3007 RMK AO2
KMBO 221615Z AUTO 30006KT 7SM BKN008 OVC012 17/16 A3007 RMK AO2 PWINO
KMBO 221555Z AUTO 30009G16KT 7SM SCT003 SCT007 OVC016 19/18 A3006 RMK AO2 LTG DSNT SE PWINO
KMBO 221535Z AUTO 00000KT 5SM SCT003 SCT006 OVC017 20/20 A3005 RMK AO2 PWINO
KMBO 221515Z AUTO 00000KT 10SM OVC019 21/20 A3004 RMK AO2 PWINO
KMBO 221455Z AUTO 00000KT 10SM SCT003 SCT019 SCT037 21/20 A3004 RMK AO2 PWINO
KMBO 221435Z AUTO 00000KT 5SM SCT003 SCT030 SCT045 21/19 A3003 RMK AO2 PWINO
KMBO 221415Z AUTO 14003KT 10SM SCT095 21/19 A3004 RMK AO2 LTG DSNT S PWINO
KMBO 221355Z AUTO 19005KT 10SM SCT001 SCT007 SCT011 20/18 A3002 RMK AO2 LTG DSNT SE AND S PWINO
KMBO 221335Z AUTO 15004KT 10SM CLR 20/20 A3001 RMK AO2 LTG DSNT NW PWINO
KMBO 221315Z AUTO 00000KT 10SM SCT001 20/20 A2999 RMK AO2 LTG DSNT SW AND W PWINO
KMBO 221255Z AUTO 00000KT 10SM SCT001 20/20 A3001 RMK AO2 LTG DSNT SE THRU NW PWINO
KMBO 221235Z AUTO 00000KT 10SM SCT001 SCT007 SCT012 20/19 A3001 RMK AO2 LTG DSNT W PWINO
KMBO 221215Z AUTO 11003KT 10SM SCT001 SCT005 SCT021 21/19 A3000 RMK AO2 LTG DSNT S AND W PWINO
KMBO 221155Z AUTO 00000KT 10SM CLR 22/18 A3000 RMK AO2 LTG DSNT S PWINO
KMBO 221135Z AUTO 16003KT 10SM CLR 21/18 A2999 RMK AO2 LTG DSNT S AND NW PWINO
KMBO 221115Z AUTO 15005KT 10SM CLR 22/18 A3000 RMK AO2 LTG DSNT S AND W PWINO
KMBO 221055Z AUTO 18004KT 10SM CLR 21/18 A3001 RMK AO2 LTG DSNT S PWINO
KMBO 221035Z AUTO 19005G16KT 10SM CLR 21/18 A3000 RMK AO2 LTG DSNT S AND NW PWINO
KMBO 221015Z AUTO 20009KT 10SM CLR 21/18 A2998 RMK AO2 LTG DSNT S AND NW PWINO
KMBO 220955Z AUTO 18009G17KT 10SM SCT001 SCT007 SCT011 21/18 A2996 RMK AO2 LTG DSNT S PWINO
KMBO 220935Z AUTO 18009G20KT 10SM SCT001 SCT007 21/18 A2995 RMK AO2 PWINO
KMBO 220915Z AUTO 14016G29KT 10SM BKN001 BKN009 21/18 A2991 RMK AO2 PWINO
KMBO 220855Z AUTO 14010G19KT 10SM BKN001 OVC008 21/19 A2996 RMK AO2 PWINO
KMBO 220835Z AUTO 16009G19KT 132V192 10SM BKN001 OVC006 21/19 A2998 RMK AO2 PWINO
KMBO 220815Z AUTO 16010G20KT 10SM BKN002 BKN005 BKN008 21/20 A2999 RMK AO2 LTG DSNT S AND SW PWINO
KMBO 220755Z AUTO 17010G15KT 132V192 10SM BKN004 BKN008 21/20 A3001 RMK AO2 LTG DSNT SW PWINO
KMBO 220735Z AUTO 18010G18KT 10SM SCT002 SCT006 SCT080 21/20 A3003 RMK AO2 PWINO
KMBO 220715Z AUTO 17008G19KT 10SM SCT001 21/20 A3002 RMK AO2 LTG DSNT SW PWINO
KMBO 220655Z AUTO 17006G18KT 10SM SCT001 21/20 A3002 RMK AO2 LTG DSNT SW PWINO
KMBO 220635Z AUTO 14011G22KT 10SM SCT001 22/20 A3002 RMK AO2 LTG DSNT S AND SW PWINO
KMBO 220615Z AUTO 16006KT 10SM SCT001 22/20 A3005 RMK AO2 LTG DSNT SW PWINO
KMBO 220555Z AUTO 14008KT 122V182 10SM CLR 22/20 A3006 RMK AO2 LTG DSNT SW PWINO
KMBO 220535Z AUTO 17007KT 142V202 10SM CLR 22/20 A3008 RMK AO2 LTG DSNT SW PWINO
KMBO 220515Z AUTO 16007KT 10SM SCT001 SCT008 22/20 A3008 RMK AO2 LTG DSNT SW PWINO
KMBO 220455Z AUTO 14006KT 10SM SCT001 BKN010 22/20 A3009 RMK AO2 PWINO
KMBO 220435Z AUTO 15004KT 10SM SCT001 SCT010 22/20 A3010 RMK AO2 PWINO
KMBO 220415Z AUTO 15004KT 10SM SCT070 22/20 A3011 RMK AO2 LTG DSNT SW PWINO
KMBO 220355Z AUTO 13004KT 10SM SCT060 22/20 A3011 RMK AO2 PWINO
KMBO 220335Z AUTO 13004KT 10SM BKN060 22/20 A3011 RMK AO2 PWINO
KMBO 220315Z AUTO 15003KT 10SM SCT005 SCT011 BKN060 22/20 A3012 RMK AO2 PWINO
KMBO 220255Z AUTO 00000KT 10SM SCT001 SCT005 BKN011 22/20 A3011 RMK AO2 LTG DSNT N PWINO
KMBO 220235Z AUTO 11003KT 10SM SCT001 SCT042 BKN060 22/20 A3011 RMK AO2 LTG DSNT SW AND NW PWINO
KMBO 220215Z AUTO 12003KT 10SM SCT038 SCT045 BKN050 23/20 A3011 RMK AO2 LTG DSNT NW PWINO
KMBO 220155Z AUTO 12003KT 10SM SCT033 BKN049 BKN060 23/20 A3009 RMK AO2 PWINO
KMBO 220135Z AUTO 11003KT 10SM SCT029 SCT035 BKN047 23/20 A3008 RMK AO2 LTG DSNT SW AND NW PWINO
KMBO 220115Z AUTO 12005KT 10SM CLR 23/20 A3007 RMK AO2 LTG DSNT SW AND NW PWINO
KMBO 220055Z AUTO 10004KT 10SM SCT047 SCT060 23/20 A3005 RMK AO2 LTG DSNT SW AND NW PWINO
KMBO 220035Z AUTO 11003KT 10SM SCT040 BKN060 23/20 A3006 RMK AO2 PWINO
KMBO 220015Z AUTO 00000KT 10SM SCT002 SCT060 23/20 A3006 RMK AO2 LTG DSNT W PWINO
KMBO 212355Z AUTO 10003KT 10SM BKN002 BKN006 OVC060 22/21 A3005 RMK AO2 PWINO
KMBO 212335Z AUTO 00000KT 10SM SCT002 BKN008 BKN023 23/21 A3006 RMK AO2 LTG DSNT W PWINO
KMBO 212315Z AUTO 13003KT 10SM SCT002 SCT010 BKN070 24/20 A3006 RMK AO2 LTG DSNT S PWINO
KMBO 212255Z AUTO 00000KT 10SM SCT002 SCT050 BKN075 25/20 A3005 RMK AO2 LTG DSNT S THRU NW PWINO
KMBO 212235Z AUTO 13003KT 10SM VCTS SCT002 SCT032 BKN049 25/20 A3005 RMK AO2 LTG DSNT S THRU W
KMBO 212215Z AUTO 11004KT 10SM VCTS SCT032 BKN042 BKN049 26/20 A3004 RMK AO2 LTG DSNT SW AND W
KMBO 212155Z AUTO 11003KT 10SM BKN032 BKN038 26/20 A3003 RMK AO2 PWINO
KMBO 212135Z AUTO 09004KT 10SM SCT036 SCT044 27/20 A3003 RMK AO2 LTG DSNT SW PWINO
KMBO 212115Z AUTO 10005KT 10SM SCT032 27/20 A3003 RMK AO2 PWINO
KMBO 212055Z AUTO 13005KT 10SM SCT032 SCT043 28/20 A3004 RMK AO2 LTG DSNT SW PWINO
KMBO 212035Z AUTO 11006KT 10SM SCT046 27/20 A3005 RMK AO2 PWINO
KMBO 212015Z AUTO 13005KT 10SM SCT029 SCT050 27/20 A3005 RMK AO2 PWINO
KMBO 211955Z AUTO 13006KT 10SM SCT029 SCT038 26/20 A3005 RMK AO2 PWINO
KMBO 211935Z AUTO 14007KT 102V172 10SM SCT029 SCT035 BKN040 27/20 A3006 RMK AO2 PWINO
KMBO 211915Z AUTO 12005KT 10SM BKN031 BKN040 27/20 A3006 RMK AO2 PWINO
KMBO 211855Z AUTO 13005KT 10SM SCT031 SCT040 27/20 A3006 RMK AO2 PWINO
KMBO 211835Z AUTO 14005KT 10SM SCT031 SCT036 27/20 A3007 RMK AO2 PWINO
KMBO 211815Z AUTO 14007KT 10SM SCT031 27/20 A3008 RMK AO2 PWINO
KMBO 211755Z AUTO 13007KT 10SM CLR 27/20 A3008 RMK AO2 PWINO
KMBO 211735Z AUTO 16007KT 122V202 10SM SCT026 26/20 A3010 RMK AO2 PWINO
KMBO 211715Z AUTO 13008KT 10SM CLR 26/20 A3011 RMK AO2 PWINO
KMBO 211655Z AUTO 13005KT 10SM CLR 26/19 A3011 RMK AO2 PWINO
KMBO 211635Z AUTO 15008KT 122V182 10SM CLR 26/19 A3012 RMK AO2 PWINO
KMBO 211615Z AUTO 12004KT 10SM SCT023 25/19 A3012 RMK AO2 PWINO
KMBO 211555Z AUTO 12004KT 10SM CLR 25/18 A3012 RMK AO2 LTG DSNT S PWINO
KMBO 211535Z AUTO 13004KT 10SM CLR 23/18 A3013 RMK AO2 PWINO
KMBO 211515Z AUTO 09004KT 10SM CLR 22/17 A3013 RMK AO2 PWINO
KMBO 211455Z AUTO 11004KT 10SM CLR 21/16 A3012 RMK AO2 PWINO
KMBO 211435Z AUTO 13004KT 10SM CLR 20/16 A3012 RMK AO2 PWINO
KMBO 211415Z AUTO 13003KT 10SM CLR 19/15 A3012 RMK AO2 PWINO
KMBO 211355Z AUTO 11003KT 10SM CLR 18/14 A3012 RMK AO2 PWINO
KMBO 211335Z AUTO 11003KT 10SM CLR 18/14 A3012 RMK AO2 PWINO
KMBO 211315Z AUTO 11005KT 10SM CLR 18/13 A3011 RMK AO2 PWINO
KMBO 211255Z AUTO 12004KT 10SM CLR 17/13 A3011 RMK AO2 PWINO
KMBO 211235Z AUTO 11003KT 10SM CLR 17/13 A3011 RMK AO2 PWINO
KMBO 211215Z AUTO 00000KT 10SM CLR 17/13 A3010 RMK AO2 PWINO
KMBO 211155Z AUTO 10004KT 10SM CLR 17/13 A3010 RMK AO2 PWINO
KMBO 211135Z AUTO 00000KT 10SM CLR 17/14 A3010 RMK AO2 PWINO
KMBO 211115Z AUTO 00000KT 10SM CLR 17/14 A3010 RMK AO2 PWINO
KMBO 211055Z AUTO 00000KT 10SM CLR 16/14 A3009 RMK AO2 PWINO
KMBO 211035Z AUTO 00000KT 10SM CLR 16/15 A3008 RMK AO2 PWINO
KMBO 211015Z AUTO 00000KT 10SM CLR 17/14 A3008 RMK AO2 PWINO
KMBO 210955Z AUTO 00000KT 10SM CLR 17/15 A3008 RMK AO2 PWINO
KMBO 210935Z AUTO 00000KT 10SM CLR 17/15 A3008 RMK AO2 PWINO
KMBO 210915Z AUTO 00000KT 10SM CLR 17/15 A3007 RMK AO2 PWINO